sensor_id;sensor_type;location;lat;lon;timestamp;pressure;altitude;pressure_sealevel;temperature;humidity
21449;BME280;10885;52.830;13.788;2023-10-19T05:08:59;99819.38;;;6.23;79.12
21449;BME280;10885;52.830;13.788;2023-10-19T05:14:02;99814.22;;;6.22;79.56
21449;BME280;10885;52.830;13.788;2023-10-19T05:19:07;99813.00;;;6.16;79.31
21449;BME280;10885;52.830;13.788;2023-10-19T05:24:10;99802.16;;;6.19;79.60
21449;BME280;10885;52.830;13.788;2023-10-19T05:29:13;99804.50;;;6.16;79.81
21449;BME280;10885;52.830;13.788;2023-10-19T05:34:15;99797.75;;;6.16;79.28
21449;BME280;10885;52.830;13.788;2023-10-19T05:39:19;99803.72;;;6.17;78.67
21449;BME280;10885;52.830;13.788;2023-10-19T05:44:22;99801.28;;;6.18;79.54
21449;BME280;10885;52.830;13.788;2023-10-19T05:49:27;99790.38;;;6.20;78.92
21449;BME280;10885;52.830;13.788;2023-10-19T05:54:33;99781.19;;;6.22;78.80
21449;BME280;10885;52.830;13.788;2023-10-19T05:59:36;99796.59;;;6.25;78.71
21449;BME280;10885;52.830;13.788;2023-10-19T06:04:39;99784.88;;;6.27;78.66
21449;BME280;10885;52.830;13.788;2023-10-19T06:09:42;99794.47;;;6.31;78.20
21449;BME280;10885;52.830;13.788;2023-10-19T06:14:44;99797.97;;;6.33;78.37
21449;BME280;10885;52.830;13.788;2023-10-19T06:19:47;99788.03;;;6.36;78.04
21449;BME280;10885;52.830;13.788;2023-10-19T06:24:50;99789.13;;;6.40;77.42
21449;BME280;10885;52.830;13.788;2023-10-19T06:29:52;99784.13;;;6.41;78.24
21449;BME280;10885;52.830;13.788;2023-10-19T06:34:55;99765.44;;;6.41;77.85
21449;BME280;10885;52.830;13.788;2023-10-19T06:39:59;99754.63;;;6.43;78.01
21449;BME280;10885;52.830;13.788;2023-10-19T06:45:02;99750.69;;;6.48;77.23
21449;BME280;10885;52.830;13.788;2023-10-19T06:50:06;99756.97;;;6.53;77.59
21449;BME280;10885;52.830;13.788;2023-10-19T06:55:11;99760.56;;;6.57;78.04
21449;BME280;10885;52.830;13.788;2023-10-19T07:00:21;99759.22;;;6.62;77.01
21449;BME280;10885;52.830;13.788;2023-10-19T07:05:29;99744.22;;;6.67;77.32
21449;BME280;10885;52.830;13.788;2023-10-19T07:10:35;99734.88;;;6.66;77.69
21449;BME280;10885;52.830;13.788;2023-10-19T07:15:37;99739.06;;;6.65;77.62
21449;BME280;10885;52.830;13.788;2023-10-19T07:20:43;99738.28;;;6.66;78.55
21449;BME280;10885;52.830;13.788;2023-10-19T07:25:52;99730.75;;;6.68;77.97
21449;BME280;10885;52.830;13.788;2023-10-19T07:30:57;99740.53;;;6.75;77.99
21449;BME280;10885;52.830;13.788;2023-10-19T07:36:02;99728.19;;;6.81;78.90
21449;BME280;10885;52.830;13.788;2023-10-19T07:41:10;99721.63;;;6.85;77.70
21449;BME280;10885;52.830;13.788;2023-10-19T07:46:13;99724.88;;;6.95;78.21
21449;BME280;10885;52.830;13.788;2023-10-19T07:51:16;99728.28;;;7.09;78.54
21449;BME280;10885;52.830;13.788;2023-10-19T07:56:19;99725.78;;;7.24;78.04
21449;BME280;10885;52.830;13.788;2023-10-19T08:01:21;99720.53;;;7.36;77.49
21449;BME280;10885;52.830;13.788;2023-10-19T08:06:25;99697.50;;;7.48;77.75
21449;BME280;10885;52.830;13.788;2023-10-19T08:11:29;99701.03;;;7.65;77.14
21449;BME280;10885;52.830;13.788;2023-10-19T08:16:31;99695.03;;;7.64;76.78
21449;BME280;10885;52.830;13.788;2023-10-19T08:21:34;99696.00;;;7.66;76.80
21449;BME280;10885;52.830;13.788;2023-10-19T08:26:41;99700.69;;;7.73;76.49
21449;BME280;10885;52.830;13.788;2023-10-19T08:31:44;99705.88;;;7.75;76.17
21449;BME280;10885;52.830;13.788;2023-10-19T08:36:49;99685.22;;;7.70;76.46
21449;BME280;10885;52.830;13.788;2023-10-19T08:41:52;99676.81;;;7.71;76.62
21449;BME280;10885;52.830;13.788;2023-10-19T08:46:56;99672.31;;;7.82;76.25
21449;BME280;10885;52.830;13.788;2023-10-19T08:52:00;99666.78;;;7.89;75.80
21449;BME280;10885;52.830;13.788;2023-10-19T08:57:06;99676.56;;;7.96;75.38
21449;BME280;10885;52.830;13.788;2023-10-19T09:02:09;99675.22;;;8.03;76.19
21449;BME280;10885;52.830;13.788;2023-10-19T09:07:12;99675.22;;;8.03;75.40
21449;BME280;10885;52.830;13.788;2023-10-19T09:12:14;99669.78;;;7.97;75.97
21449;BME280;10885;52.830;13.788;2023-10-19T09:17:27;99656.19;;;7.96;75.71
21449;BME280;10885;52.830;13.788;2023-10-19T09:22:35;99663.19;;;8.01;76.64
21449;BME280;10885;52.830;13.788;2023-10-19T09:27:39;99665.22;;;8.06;76.38
21449;BME280;10885;52.830;13.788;2023-10-19T09:32:42;99670.84;;;8.01;76.37
21449;BME280;10885;52.830;13.788;2023-10-19T09:37:45;99650.53;;;8.02;77.35
21449;BME280;10885;52.830;13.788;2023-10-19T09:42:50;99655.03;;;8.06;77.15
21449;BME280;10885;52.830;13.788;2023-10-19T09:47:56;99653.78;;;8.14;77.29
21449;BME280;10885;52.830;13.788;2023-10-19T09:52:59;99645.19;;;8.12;77.03
21449;BME280;10885;52.830;13.788;2023-10-19T09:58:15;99632.69;;;8.17;76.85
21449;BME280;10885;52.830;13.788;2023-10-19T10:03:47;99634.59;;;8.21;76.13
21449;BME280;10885;52.830;13.788;2023-10-19T10:08:51;99628.34;;;8.31;75.92
21449;BME280;10885;52.830;13.788;2023-10-19T10:13:57;99635.38;;;8.35;75.85
21449;BME280;10885;52.830;13.788;2023-10-19T10:19:01;99633.16;;;8.41;77.10
21449;BME280;10885;52.830;13.788;2023-10-19T10:24:04;99623.94;;;8.60;75.87
21449;BME280;10885;52.830;13.788;2023-10-19T10:29:12;99620.53;;;8.75;75.06
21449;BME280;10885;52.830;13.788;2023-10-19T10:39:48;99600.13;;;9.08;75.06
21449;BME280;10885;52.830;13.788;2023-10-19T10:44:51;99603.41;;;9.06;74.20
21449;BME280;10885;52.830;13.788;2023-10-19T10:49:59;99593.53;;;9.12;74.03
21449;BME280;10885;52.830;13.788;2023-10-19T10:55:08;99582.66;;;9.16;73.43
21449;BME280;10885;52.830;13.788;2023-10-19T11:00:14;99571.72;;;9.19;73.98
21449;BME280;10885;52.830;13.788;2023-10-19T11:05:20;99561.88;;;9.43;73.51
21449;BME280;10885;52.830;13.788;2023-10-19T11:10:30;99556.69;;;9.75;71.82
21449;BME280;10885;52.830;13.788;2023-10-19T11:15:34;99556.91;;;9.80;70.65
21449;BME280;10885;52.830;13.788;2023-10-19T11:20:37;99575.16;;;9.70;71.06
21449;BME280;10885;52.830;13.788;2023-10-19T11:25:40;99576.94;;;9.54;71.36
21449;BME280;10885;52.830;13.788;2023-10-19T11:30:42;99580.81;;;9.30;72.07
21449;BME280;10885;52.830;13.788;2023-10-19T11:35:45;99566.41;;;9.14;72.78
21449;BME280;10885;52.830;13.788;2023-10-19T11:40:48;99557.13;;;9.00;73.92
21449;BME280;10885;52.830;13.788;2023-10-19T11:45:50;99549.16;;;8.93;73.45
21449;BME280;10885;52.830;13.788;2023-10-19T11:50:54;99541.38;;;8.90;73.93
21449;BME280;10885;52.830;13.788;2023-10-19T11:55:57;99543.06;;;8.90;74.32
21449;BME280;10885;52.830;13.788;2023-10-19T12:01:03;99526.06;;;8.90;73.74
21449;BME280;10885;52.830;13.788;2023-10-19T12:06:11;99525.66;;;8.99;73.18
21449;BME280;10885;52.830;13.788;2023-10-19T12:11:15;99515.03;;;9.08;73.15
21449;BME280;10885;52.830;13.788;2023-10-19T12:16:19;99507.81;;;9.17;73.28
21449;BME280;10885;52.830;13.788;2023-10-19T12:21:23;99508.38;;;9.28;73.52
21449;BME280;10885;52.830;13.788;2023-10-19T12:26:30;99489.13;;;9.34;72.95
21449;BME280;10885;52.830;13.788;2023-10-19T12:31:33;99487.59;;;9.38;72.64
21449;BME280;10885;52.830;13.788;2023-10-19T12:36:36;99491.88;;;9.39;72.83
21449;BME280;10885;52.830;13.788;2023-10-19T12:41:39;99492.63;;;9.36;72.32
21449;BME280;10885;52.830;13.788;2023-10-19T12:46:42;99514.56;;;9.33;72.24
21449;BME280;10885;52.830;13.788;2023-10-19T12:51:45;99517.19;;;9.34;72.71
21449;BME280;10885;52.830;13.788;2023-10-19T12:56:49;99517.28;;;9.36;72.35
21449;BME280;10885;52.830;13.788;2023-10-19T13:01:52;99500.44;;;9.40;71.85
21449;BME280;10885;52.830;13.788;2023-10-19T13:07:00;99491.09;;;9.40;71.19
21449;BME280;10885;52.830;13.788;2023-10-19T13:12:07;99481.19;;;9.46;72.38
21449;BME280;10885;52.830;13.788;2023-10-19T13:17:11;99486.59;;;9.52;71.28
21449;BME280;10885;52.830;13.788;2023-10-19T13:22:15;99485.00;;;9.54;71.50
21449;BME280;10885;52.830;13.788;2023-10-19T13:27:19;99489.16;;;9.52;71.82
21449;BME280;10885;52.830;13.788;2023-10-19T13:32:24;99472.72;;;9.47;72.34
21449;BME280;10885;52.830;13.788;2023-10-19T13:37:30;99473.94;;;9.38;72.40
21449;BME280;10885;52.830;13.788;2023-10-19T13:42:35;99470.22;;;9.31;72.47
21449;BME280;10885;52.830;13.788;2023-10-19T13:47:56;99458.84;;;9.24;72.84
21449;BME280;10885;52.830;13.788;2023-10-19T13:53:00;99463.00;;;9.22;72.99
21449;BME280;10885;52.830;13.788;2023-10-19T13:58:03;99466.91;;;9.33;74.52
21449;BME280;10885;52.830;13.788;2023-10-19T14:03:13;99470.31;;;9.68;73.09
21449;BME280;10885;52.830;13.788;2023-10-19T14:08:17;99460.50;;;9.95;71.80
21449;BME280;10885;52.830;13.788;2023-10-19T14:13:20;99463.28;;;10.00;71.38
21449;BME280;10885;52.830;13.788;2023-10-19T14:18:22;99478.13;;;10.09;71.39
21449;BME280;10885;52.830;13.788;2023-10-19T14:23:25;99464.41;;;10.07;71.32
21449;BME280;10885;52.830;13.788;2023-10-19T14:28:29;99451.59;;;10.05;71.58
21449;BME280;10885;52.830;13.788;2023-10-19T14:33:32;99471.66;;;9.60;74.10
21449;BME280;10885;52.830;13.788;2023-10-19T14:38:37;99468.81;;;9.20;76.41
21449;BME280;10885;52.830;13.788;2023-10-19T14:43:42;99460.59;;;8.91;77.82
21449;BME280;10885;52.830;13.788;2023-10-19T14:48:45;99457.13;;;8.72;79.77
21449;BME280;10885;52.830;13.788;2023-10-19T14:53:49;99465.75;;;8.58;80.19
21449;BME280;10885;52.830;13.788;2023-10-19T14:58:52;99460.31;;;8.52;81.03
21449;BME280;10885;52.830;13.788;2023-10-19T15:03:57;99454.69;;;8.41;82.23
21449;BME280;10885;52.830;13.788;2023-10-19T15:09:00;99450.03;;;8.34;83.43
21449;BME280;10885;52.830;13.788;2023-10-19T15:14:03;99449.72;;;8.28;84.94
21449;BME280;10885;52.830;13.788;2023-10-19T15:19:07;99451.00;;;8.20;84.23
21449;BME280;10885;52.830;13.788;2023-10-19T15:24:13;99453.31;;;8.15;86.55
21449;BME280;10885;52.830;13.788;2023-10-19T15:29:16;99446.41;;;8.12;85.87
21449;BME280;10885;52.830;13.788;2023-10-19T15:34:18;99446.00;;;8.05;85.27
21449;BME280;10885;52.830;13.788;2023-10-19T15:39:22;99453.31;;;8.15;87.50
21449;BME280;10885;52.830;13.788;2023-10-19T15:44:25;99457.66;;;9.35;82.60
21449;BME280;10885;52.830;13.788;2023-10-19T15:49:28;99455.72;;;8.45;83.29
21449;BME280;10885;52.830;13.788;2023-10-19T15:54:31;99455.13;;;8.01;85.46
21449;BME280;10885;52.830;13.788;2023-10-19T15:59:34;99446.56;;;7.84;85.51
21449;BME280;10885;52.830;13.788;2023-10-19T16:04:38;99442.69;;;7.74;86.00
21449;BME280;10885;52.830;13.788;2023-10-19T16:09:43;99438.13;;;7.69;86.83
21449;BME280;10885;52.830;13.788;2023-10-19T16:14:46;99445.69;;;7.67;86.79
21449;BME280;10885;52.830;13.788;2023-10-19T16:19:48;99447.91;;;7.61;86.46
21449;BME280;10885;52.830;13.788;2023-10-19T16:24:51;99434.22;;;7.59;85.78
21449;BME280;10885;52.830;13.788;2023-10-19T16:29:55;99438.16;;;7.54;85.34
21449;BME280;10885;52.830;13.788;2023-10-19T16:34:57;99442.56;;;7.56;85.42
21449;BME280;10885;52.830;13.788;2023-10-19T16:40:01;99446.31;;;7.48;84.73
21449;BME280;10885;52.830;13.788;2023-10-19T16:45:07;99447.75;;;7.43;84.64
21449;BME280;10885;52.830;13.788;2023-10-19T16:50:13;99448.38;;;7.39;83.86
21449;BME280;10885;52.830;13.788;2023-10-19T16:55:21;99436.34;;;7.36;85.39
21449;BME280;10885;52.830;13.788;2023-10-19T17:00:24;99430.28;;;7.34;85.40
21449;BME280;10885;52.830;13.788;2023-10-19T17:05:27;99438.63;;;7.32;85.48
21449;BME280;10885;52.830;13.788;2023-10-19T17:10:30;99448.72;;;7.30;86.17
21449;BME280;10885;52.830;13.788;2023-10-19T17:15:33;99439.25;;;7.28;84.84
21449;BME280;10885;52.830;13.788;2023-10-19T17:20:39;99428.13;;;7.26;85.90
21449;BME280;10885;52.830;13.788;2023-10-19T17:25:43;99414.44;;;7.24;86.46
21449;BME280;10885;52.830;13.788;2023-10-19T17:30:49;99406.03;;;7.25;86.35
21449;BME280;10885;52.830;13.788;2023-10-19T17:35:53;99399.88;;;7.21;86.10
21449;BME280;10885;52.830;13.788;2023-10-19T17:40:57;99410.69;;;7.17;86.00
21449;BME280;10885;52.830;13.788;2023-10-19T17:45:59;99414.81;;;7.15;86.85
21449;BME280;10885;52.830;13.788;2023-10-19T17:51:13;99414.88;;;7.16;86.62
21449;BME280;10885;52.830;13.788;2023-10-19T17:56:18;99413.91;;;7.14;86.85
21449;BME280;10885;52.830;13.788;2023-10-19T18:01:24;99410.41;;;7.12;85.69
21449;BME280;10885;52.830;13.788;2023-10-19T18:06:27;99416.22;;;7.10;86.14
21449;BME280;10885;52.830;13.788;2023-10-19T18:11:29;99414.47;;;7.09;87.06
21449;BME280;10885;52.830;13.788;2023-10-19T18:16:32;99405.25;;;7.11;87.97
21449;BME280;10885;52.830;13.788;2023-10-19T18:21:35;99403.50;;;7.10;86.56
21449;BME280;10885;52.830;13.788;2023-10-19T18:26:37;99393.22;;;7.08;87.73
21449;BME280;10885;52.830;13.788;2023-10-19T18:31:40;99395.66;;;7.07;87.03
21449;BME280;10885;52.830;13.788;2023-10-19T18:36:43;99397.34;;;7.06;87.31
21449;BME280;10885;52.830;13.788;2023-10-19T18:41:46;99398.06;;;7.04;86.98
21449;BME280;10885;52.830;13.788;2023-10-19T18:46:49;99397.88;;;7.01;87.62
21449;BME280;10885;52.830;13.788;2023-10-19T18:51:51;99405.50;;;7.01;87.66
21449;BME280;10885;52.830;13.788;2023-10-19T18:56:54;99415.78;;;7.02;88.54
